Time;durP1;ratioP1;P1;durP2;ratioP2;P2;SDS_P1;SDS_P2;PMS_P1;PMS_P2;Temp;Humidity;BMP_temperature;BMP_pressure;BME280_temperature;BME280_humidity;BME280_pressure;Samples;Min_cycle;Max_cycle;Signal;HPM_P1;HPM_P2
2022/01/20 00:02:17;;;;;;;12.50;6.38;;;;;;;-3.40;90.93;93777.53;5030587;28;20053;-86
2022/01/20 00:04:49;;;;;;;8.95;5.38;;;;;;;-3.40;91.19;93775.84;5030699;28;20496;-85
2022/01/20 00:07:36;;;;;;;12.15;5.97;;;;;;;-3.49;91.59;93767.25;5042731;28;20073;-85
2022/01/20 00:26:53;;;;;;;12.43;6.57;;;;;;;-3.31;91.71;93771.06;5027851;28;20050;-85
2022/01/20 00:29:29;;;;;;;16.27;6.57;;;;;;;-3.29;91.41;93779.28;5027693;28;20096;-85
2022/01/20 00:32:08;;;;;;;12.07;6.32;;;;;;;-3.32;91.53;93761.91;5029814;28;20100;-86
2022/01/20 00:37:19;;;;;;;16.92;6.15;;;;;;;-3.25;91.86;93766.38;5027406;28;20115;-85
2022/01/20 00:39:46;;;;;;;16.63;6.05;;;;;;;-3.32;92.01;93757.72;5029957;28;20041;-86
2022/01/20 00:42:14;;;;;;;12.95;5.55;;;;;;;-3.24;91.65;93768.00;5029703;28;20494;-86
2022/01/20 00:44:56;;;;;;;15.20;5.30;;;;;;;-3.30;91.58;93747.53;5031691;28;20416;-86
2022/01/20 00:47:25;;;;;;;13.88;5.88;;;;;;;-3.20;91.37;93763.53;5028263;28;20045;-87
2022/01/20 00:49:53;;;;;;;14.70;5.22;;;;;;;-3.19;91.32;93762.66;5029866;28;20053;-87
2022/01/20 00:52:22;;;;;;;13.38;6.20;;;;;;;-3.15;91.12;93763.22;5029962;28;20493;-85
2022/01/20 00:54:49;;;;;;;15.18;5.38;;;;;;;-3.12;91.11;93761.28;5030036;28;20554;-85
2022/01/20 00:57:17;;;;;;;14.57;5.78;;;;;;;-3.79;90.58;93652.25;5030231;28;20151;-86
2022/01/20 00:59:46;;;;;;;16.27;5.80;;;;;;;-3.06;90.08;93759.22;5030657;28;20068;-85
2022/01/20 01:02:21;;;;;;;14.85;5.70;;;;;;;-3.16;90.30;93741.53;5030495;28;20057;-86
2022/01/20 01:04:48;;;;;;;17.80;6.45;;;;;;;-3.04;90.18;93745.63;5030358;28;20152;-86
2022/01/20 01:07:43;;;;;;;17.33;6.63;;;;;;;-3.04;89.94;93745.63;5033721;28;20041;-85
2022/01/20 01:10:11;;;;;;;20.73;8.40;;;;;;;-3.04;89.66;93740.63;5030097;28;20056;-86
2022/01/20 01:13:01;;;;;;;14.15;5.78;;;;;;;-3.22;90.03;93715.13;5027903;28;20049;-86
2022/01/20 01:15:34;;;;;;;13.27;5.70;;;;;;;-3.05;89.89;93739.00;5028958;28;20469;-86
2022/01/20 01:23:36;;;;;;;17.30;5.95;;;;;;;-3.25;90.13;93702.75;5031321;28;20057;-87
2022/01/20 01:26:05;;;;;;;19.75;6.50;;;;;;;-3.16;90.27;93713.88;5030425;28;20544;-87
2022/01/20 01:28:33;;;;;;;21.33;8.85;;;;;;;-3.18;90.51;93713.16;5032922;28;20145;-87
2022/01/20 01:31:26;;;;;;;13.68;5.72;;;;;;;-3.13;90.19;93719.47;5032636;28;20503;-87
2022/01/20 01:33:56;;;;;;;16.73;6.47;;;;;;;-3.16;90.12;93709.63;5031345;28;20085;-86
2022/01/20 01:36:24;;;;;;;11.55;5.70;;;;;;;-3.03;89.97;93718.78;5001188;28;20047;-87
2022/01/20 01:38:51;;;;;;;200.48;82.35;;;;;;;-3.07;90.10;93715.69;5032831;28;20051;-87
2022/01/20 01:41:28;;;;;;;32.90;13.38;;;;;;;-3.02;90.29;93716.16;5032855;28;20071;-87
2022/01/20 01:43:56;;;;;;;18.17;7.30;;;;;;;-3.01;89.88;93714.44;5032751;28;20053;-87
2022/01/20 01:46:25;;;;;;;48.70;18.70;;;;;;;-2.98;90.01;93712.50;5032835;28;20053;-87
2022/01/20 01:48:52;;;;;;;38.55;15.43;;;;;;;-2.98;89.35;93699.94;5017099;28;20668;-87
2022/01/20 01:51:19;;;;;;;53.20;23.00;;;;;;;-3.05;89.77;93696.28;5046157;28;20107;-87
2022/01/20 01:53:47;;;;;;;21.58;10.57;;;;;;;-2.96;89.74;93708.16;5032351;28;20049;-87
2022/01/20 01:56:14;;;;;;;18.67;8.68;;;;;;;-3.02;89.56;93692.75;5032889;28;20067;-87
2022/01/20 01:58:40;;;;;;;25.23;12.45;;;;;;;-2.98;89.38;93699.94;5033112;28;20405;-86
2022/01/20 02:01:07;;;;;;;20.90;8.20;;;;;;;-3.03;89.69;93701.19;5032931;28;20367;-89
2022/01/20 02:03:43;;;;;;;22.88;9.45;;;;;;;-3.70;90.25;93603.09;5032854;28;20103;-88
2022/01/20 02:06:28;;;;;;;26.27;11.88;;;;;;;-3.09;90.46;93698.22;5032600;28;20051;-87
2022/01/20 02:09:02;;;;;;;12.68;6.28;;;;;;;-3.12;90.63;93698.44;5032950;28;20213;-87
2022/01/20 02:19:56;;;;;;;18.02;7.50;;;;;;;-3.12;90.80;93685.88;5032556;28;20523;-87
2022/01/20 02:22:24;;;;;;;32.47;14.98;;;;;;;-3.10;90.31;93678.25;5032545;28;20124;-86
2022/01/20 02:24:51;;;;;;;20.52;7.90;;;;;;;-3.07;90.38;93680.50;5032325;28;20524;-88
2022/01/20 02:27:17;;;;;;;20.10;8.60;;;;;;;-3.06;89.90;93676.28;5032229;28;20053;-87
2022/01/20 02:29:45;;;;;;;23.45;10.15;;;;;;;-3.03;nan;93676.03;5032571;28;21391;-87
2022/01/20 02:32:13;;;;;;;19.25;9.15;;;;;;;-3.11;90.08;93659.84;5032368;28;20053;-88
2022/01/20 02:34:40;;;;;;;23.30;9.77;;;;;;;-3.10;89.79;93663.94;5032224;28;20092;-88
2022/01/20 02:37:13;;;;;;;13.13;5.95;;;;;;;-3.18;89.75;93653.69;5032109;28;20439;-87
2022/01/20 02:40:03;;;;;;;11.43;4.55;;;;;;;-3.06;89.66;93669.53;5032004;28;20132;-87
2022/01/20 02:45:16;;;;;;;;;;;;;;;-3.04;89.69;93670.25;5032466;28;20060;-87
2022/01/20 02:47:52;;;;;;;;;;;;;;;;;;;;;
2022/01/20 02:50:28;;;;;;;11.05;5.35;;;;;;;-3.90;89.10;93540.06;5030062;28;20046;-87
2022/01/20 02:53:04;;;;;;;79.90;34.38;;;;;;;-3.06;89.37;93666.25;5031640;28;20085;-87
2022/01/20 02:55:31;;;;;;;;;;;;;;;-3.09;89.16;93659.72;5032198;28;20099;-87
2022/01/20 02:57:58;;;;;;;38.78;20.23;;;;;;;-3.30;89.46;93636.97;5031852;28;20346;-86
2022/01/20 03:00:26;;;;;;;15.98;7.47;;;;;;;-3.13;89.54;93660.88;5031547;28;20046;-87
2022/01/20 03:02:55;;;;;;;21.10;10.10;;;;;;;-3.11;89.21;93657.31;5031833;28;20069;-87
2022/01/20 03:05:22;;;;;;;15.52;7.13;;;;;;;-3.04;89.31;93654.34;5031798;28;20132;-87
2022/01/20 03:07:53;;;;;;;24.02;11.05;;;;;;;-3.04;89.23;93651.84;5031676;28;20049;-88
2022/01/20 03:10:23;;;;;;;15.80;7.30;;;;;;;-3.04;88.87;93651.84;5031729;28;20132;-88
2022/01/20 03:12:50;;;;;;;22.02;9.73;;;;;;;-3.05;89.24;93648.53;5031433;28;20050;-87
2022/01/20 03:15:17;;;;;;;41.97;21.67;;;;;;;-3.14;89.72;93651.72;5031605;28;20085;-87
2022/01/20 03:17:46;;;;;;;28.05;14.75;;;;;;;-3.09;88.96;93645.44;5031648;28;20136;-87
2022/01/20 03:20:15;;;;;;;39.67;18.10;;;;;;;-3.09;88.85;93652.19;5031501;28;20128;-85
2022/01/20 03:22:43;;;;;;;35.42;17.77;;;;;;;-3.38;88.99;93632.56;5031333;28;20508;-87
2022/01/20 03:25:11;;;;;;;48.97;24.05;;;;;;;-3.49;86.98;93653.44;5031240;28;20054;-86
2022/01/20 03:27:40;;;;;;;50.42;28.13;;;;;;;-4.35;88.76;93656.19;5031592;28;20373;-86
2022/01/20 03:30:08;;;;;;;59.05;30.90;;;;;;;-5.55;95.17;93651.69;5031478;28;20077;-86
2022/01/20 03:32:35;;;;;;;57.92;29.30;;;;;;;-5.70;98.65;93651.00;5031310;28;20179;-86
2022/01/20 03:35:02;;;;;;;70.30;33.35;;;;;;;-6.11;100.00;93656.06;5031068;28;20168;-86
2022/01/20 03:37:28;;;;;;;78.60;34.15;;;;;;;-6.69;100.00;93653.81;5030747;28;20053;-86
2022/01/20 03:39:55;;;;;;;81.03;34.88;;;;;;;-7.04;100.00;93632.56;5031001;28;20056;-86
2022/01/20 03:42:22;;;;;;;69.03;32.00;;;;;;;-6.88;100.00;93634.94;5031400;28;20053;-86
2022/01/20 03:44:52;;;;;;;63.28;31.00;;;;;;;-6.67;100.00;93634.50;5031050;28;20054;-86
2022/01/20 03:47:19;;;;;;;61.67;32.88;;;;;;;-6.92;100.00;93631.03;5031014;28;20096;-86
2022/01/20 03:49:54;;;;;;;73.55;34.78;;;;;;;-7.17;100.00;93635.00;5030916;28;20508;-87
2022/01/20 03:52:21;;;;;;;68.35;35.42;;;;;;;-7.54;100.00;93634.69;5030784;28;20552;-87
2022/01/20 03:54:48;;;;;;;64.90;33.80;;;;;;;-7.58;100.00;93638.25;5030759;28;20092;-86
2022/01/20 03:57:15;;;;;;;45.08;21.92;;;;;;;-7.36;100.00;93625.31;5030905;28;20463;-85
2022/01/20 03:59:43;;;;;;;56.80;29.38;;;;;;;-7.47;100.00;93635.91;5030718;28;20520;-86
2022/01/20 04:02:12;;;;;;;58.90;28.70;;;;;;;-7.62;100.00;93639.31;5030660;28;20064;-86
2022/01/20 04:04:42;;;;;;;58.42;30.25;;;;;;;-7.70;100.00;93638.06;5030730;28;20049;-86
2022/01/20 04:07:08;;;;;;;65.47;31.40;;;;;;;-7.76;100.00;93630.13;5030505;28;20045;-86
2022/01/20 04:09:35;;;;;;;64.97;32.95;;;;;;;-8.09;100.00;93604.53;5030690;28;20104;-86
2022/01/20 04:12:02;;;;;;;69.97;33.58;;;;;;;-8.12;100.00;93632.94;5030573;28;20052;-86
2022/01/20 04:14:32;;;;;;;72.18;35.08;;;;;;;-8.26;100.00;93617.94;5030686;28;20041;-87
2022/01/20 04:17:04;;;;;;;77.35;33.03;;;;;;;-8.09;100.00;93635.28;5030530;28;20064;-87
2022/01/20 04:19:38;;;;;;;75.25;34.15;;;;;;;-7.93;100.00;93614.44;5030453;28;20108;-87
2022/01/20 04:22:05;;;;;;;95.32;38.55;;;;;;;-7.71;100.00;93628.97;5028955;28;20112;-87
2022/01/20 04:24:32;;;;;;;106.43;40.88;;;;;;;-7.72;100.00;93622.41;5030889;28;20050;-85
2022/01/20 04:26:58;;;;;;;103.43;38.30;;;;;;;-7.69;100.00;93618.91;5030583;28;20057;-85
2022/01/20 04:29:25;;;;;;;104.22;38.95;;;;;;;-7.66;100.00;93622.03;5030613;28;20152;-86
2022/01/20 04:31:54;;;;;;;103.85;37.70;;;;;;;-7.51;100.00;93622.81;5030420;28;20092;-86
2022/01/20 04:34:21;;;;;;;96.13;38.47;;;;;;;-7.69;100.00;93607.22;5030461;28;20041;-86
2022/01/20 04:36:53;;;;;;;70.25;31.95;;;;;;;-7.52;100.00;93617.91;5030614;28;20049;-86
2022/01/20 04:39:25;;;;;;;68.10;33.55;;;;;;;-7.39;100.00;93613.81;5030767;28;20050;-86
2022/01/20 04:41:55;;;;;;;58.42;28.50;;;;;;;-7.44;100.00;93610.00;5030444;28;20057;-86
2022/01/20 04:44:39;;;;;;;86.43;42.40;;;;;;;-7.36;100.00;93617.84;5030789;28;20088;-86
2022/01/20 04:47:16;;;;;;;93.22;52.53;;;;;;;-7.62;100.00;93621.84;5030583;28;20537;-86
2022/01/20 04:58:00;;;;;;;74.10;35.28;;;;;;;-7.58;100.00;93621.59;5034094;28;20068;-85
2022/01/20 05:00:27;;;;;;;84.95;41.60;;;;;;;-7.60;100.00;93622.56;5033930;28;20050;-85
2022/01/20 05:02:57;;;;;;;74.80;38.97;;;;;;;-7.94;100.00;93627.78;5033939;28;20061;-87
2022/01/20 05:05:28;;;;;;;84.20;43.80;;;;;;;-8.08;100.00;93616.94;5033802;28;20416;-86
2022/01/20 05:07:56;;;;;;;75.68;37.70;;;;;;;-8.41;100.00;93627.06;5017326;28;20475;-86
2022/01/20 05:10:23;;;;;;;86.95;47.67;;;;;;;-8.64;100.00;93619.19;5033802;28;20052;-86
2022/01/20 05:13:05;;;;;;;85.57;43.17;;;;;;;-8.29;100.00;93628.88;5033716;28;20103;-86
2022/01/20 05:15:33;;;;;;;68.45;35.83;;;;;;;-8.54;100.00;93610.34;5033760;28;20049;-84
2022/01/20 05:18:01;;;;;;;63.25;35.33;;;;;;;-8.59;100.00;93628.03;5033785;28;20061;-84
2022/01/20 05:20:29;;;;;;;54.70;29.77;;;;;;;-8.54;100.00;93631.94;5033853;28;20048;-86
2022/01/20 05:23:00;;;;;;;75.38;41.05;;;;;;;-8.32;100.00;93626.56;5033721;28;20132;-86
2022/01/20 05:25:30;;;;;;;83.00;44.25;;;;;;;-8.27;100.00;93637.09;5033538;28;20041;-86
2022/01/20 05:28:01;;;;;;;81.75;44.60;;;;;;;-8.47;100.00;93633.22;5033487;28;20128;-87
2022/01/20 05:30:29;;;;;;;81.90;45.28;;;;;;;-8.54;100.00;93629.47;5033429;28;20138;-86
2022/01/20 05:33:02;;;;;;;99.72;50.55;;;;;;;-8.47;100.00;93626.53;5033558;28;20466;-86
2022/01/20 05:35:29;;;;;;;85.97;45.28;;;;;;;-8.57;100.00;93627.16;5033517;28;20052;-87
2022/01/20 05:37:59;;;;;;;85.75;45.33;;;;;;;-8.76;100.00;93603.22;5033513;28;20049;-86
2022/01/20 05:40:26;;;;;;;80.30;41.58;;;;;;;-8.63;100.00;93633.25;5033239;28;20046;-86
2022/01/20 05:42:54;;;;;;;79.10;42.83;;;;;;;-8.66;100.00;93631.72;5032948;28;20488;-86
2022/01/20 05:45:23;;;;;;;95.80;52.38;;;;;;;-8.81;100.00;93633.38;5033331;28;20107;-86
2022/01/20 05:47:59;;;;;;;79.28;46.55;;;;;;;-8.86;100.00;93630.31;5033382;28;20472;-86
2022/01/20 05:50:26;;;;;;;97.63;52.40;;;;;;;-8.73;100.00;93632.97;5033159;28;20057;-87
2022/01/20 05:52:55;;;;;;;69.35;36.38;;;;;;;-9.00;100.00;93616.94;5033092;28;20064;-86
2022/01/20 05:55:25;;;;;;;84.25;42.63;;;;;;;-8.73;100.00;93627.97;5032885;28;20052;-86
2022/01/20 05:57:52;;;;;;;90.75;48.05;;;;;;;-8.87;100.00;93617.09;5033276;28;20053;-87
2022/01/20 06:00:23;;;;;;;84.88;46.88;;;;;;;-8.74;100.00;93631.34;5032614;28;20049;-87
2022/01/20 06:05:40;;;;;;;93.60;50.77;;;;;;;-8.99;100.00;93600.28;5033073;28;20072;-86
2022/01/20 06:08:08;;;;;;;91.60;52.22;;;;;;;-9.05;100.00;93608.91;5032702;28;20756;-86
2022/01/20 06:10:37;;;;;;;96.10;54.42;;;;;;;-8.88;100.00;93627.13;5032854;28;20053;-87
2022/01/20 06:13:04;;;;;;;97.97;51.92;;;;;;;-9.18;100.00;93573.91;5032537;28;20053;-84
2022/01/20 06:15:32;;;;;;;93.88;48.67;;;;;;;-8.80;100.00;93614.25;5032699;28;20057;-85
2022/01/20 06:17:59;;;;;;;104.00;51.17;;;;;;;-8.85;100.00;93592.09;5032726;28;20136;-87
2022/01/20 06:20:27;;;;;;;90.00;49.97;;;;;;;-8.76;100.00;93614.00;5032346;28;20551;-86
2022/01/20 06:22:54;;;;;;;71.82;39.85;;;;;;;-8.78;100.00;93619.94;5032580;28;20049;-86
2022/01/20 06:25:22;;;;;;;79.47;41.20;;;;;;;-8.77;100.00;93619.88;5032483;28;20435;-87
2022/01/20 06:27:53;;;;;;;99.20;49.67;;;;;;;-9.00;100.00;93583.75;5032446;28;20050;-86
2022/01/20 06:30:20;;;;;;;93.03;51.72;;;;;;;-8.86;100.00;93620.34;5032502;28;20053;-86
2022/01/20 06:32:49;;;;;;;95.65;51.22;;;;;;;-8.86;100.00;93626.16;5032186;28;20042;-86
2022/01/20 06:35:16;;;;;;;147.65;68.88;;;;;;;-8.87;100.00;93629.53;5032418;28;20068;-86
2022/01/20 06:37:43;;;;;;;125.57;64.38;;;;;;;-8.97;100.00;93617.63;5032534;28;20053;-87
2022/01/20 06:40:13;;;;;;;154.13;72.00;;;;;;;-9.25;100.00;93582.59;5032164;28;20052;-87
2022/01/20 06:42:40;;;;;;;225.35;93.03;;;;;;;-8.99;100.00;93625.19;5032099;28;20049;-85
2022/01/20 06:45:11;;;;;;;184.93;85.53;;;;;;;-8.87;100.00;93626.22;5031967;28;20045;-85
2022/01/20 06:47:38;;;;;;;134.27;69.20;;;;;;;-8.86;100.00;93603.75;5031777;28;20041;-85
2022/01/20 06:50:08;;;;;;;156.48;78.45;;;;;;;-8.69;100.00;93609.50;5032340;28;20050;-85
2022/01/20 06:52:36;;;;;;;167.95;82.20;;;;;;;-8.61;100.00;93611.56;5031734;28;20049;-85
2022/01/20 06:55:05;;;;;;;130.02;63.85;;;;;;;-8.64;100.00;93604.25;5031798;28;20046;-85
2022/01/20 06:57:35;;;;;;;142.18;68.60;;;;;;;-8.50;100.00;93598.50;5031805;28;20049;-85
2022/01/20 07:00:04;;;;;;;144.50;69.63;;;;;;;-8.36;100.00;93608.50;5031703;28;20054;-87
2022/01/20 07:02:33;;;;;;;145.40;70.07;;;;;;;-8.20;100.00;93618.41;5031806;28;20073;-88
2022/01/20 07:04:59;;;;;;;120.25;54.55;;;;;;;-8.25;100.00;93617.88;5031631;28;20053;-88
2022/01/20 07:07:27;;;;;;;117.15;50.83;;;;;;;-7.98;100.00;93622.19;5031841;28;20053;-87
2022/01/20 07:09:56;;;;;;;112.40;49.42;;;;;;;-7.92;100.00;93621.06;5031617;28;20088;-88
2022/01/20 07:12:26;;;;;;;126.13;47.28;;;;;;;-7.96;100.00;93617.13;5030767;28;20053;-88
2022/01/20 07:14:53;;;;;;;136.65;55.13;;;;;;;-7.94;100.00;93582.91;5031501;28;20140;-88
2022/01/20 07:17:26;;;;;;;120.60;50.63;;;;;;;-7.79;100.00;93611.16;5031451;28;20488;-88
2022/01/20 07:19:55;;;;;;;346.48;148.30;;;;;;;-7.52;100.00;93635.38;5031637;28;20425;-88
2022/01/20 07:22:22;;;;;;;109.25;50.58;;;;;;;-7.58;100.00;93611.63;5031363;28;20060;-89
2022/01/20 07:24:50;;;;;;;91.68;42.88;;;;;;;-7.34;100.00;93613.53;5031254;28;20045;-88
2022/01/20 07:27:19;;;;;;;51.70;29.50;;;;;;;-7.23;100.00;93604.63;5031458;28;20136;-87
2022/01/20 07:29:46;;;;;;;54.45;28.08;;;;;;;-7.02;100.00;93610.00;5031332;28;20081;-88
2022/01/20 07:32:36;;;;;;;46.33;26.48;;;;;;;-6.93;100.00;93611.13;5031382;28;20111;-88
2022/01/20 07:35:05;;;;;;;45.80;26.23;;;;;;;-6.94;100.00;93612.84;5031237;28;20050;-87
2022/01/20 07:37:38;;;;;;;47.38;22.60;;;;;;;-6.82;100.00;93603.00;5031014;28;20060;-88
2022/01/20 07:40:07;;;;;;;45.47;24.95;;;;;;;-6.69;100.00;93616.31;5031371;28;20056;-88
2022/01/20 07:42:36;;;;;;;47.15;24.60;;;;;;;-6.55;100.00;93625.47;5031026;28;20508;-89
2022/01/20 07:45:06;;;;;;;48.75;25.38;;;;;;;-6.25;100.00;93621.94;5031033;28;20581;-89
2022/01/20 07:47:35;;;;;;;49.58;26.48;;;;;;;-6.04;100.00;93627.28;5031255;28;20091;-88
2022/01/20 07:50:02;;;;;;;75.78;37.78;;;;;;;-5.90;100.00;93615.53;5031819;28;20072;-88
2022/01/20 07:52:30;;;;;;;73.05;33.28;;;;;;;-5.95;100.00;93620.03;5033251;28;20511;-87
2022/01/20 07:54:57;;;;;;;62.92;32.05;;;;;;;-5.83;100.00;93593.44;5039841;28;20049;-86
2022/01/20 07:57:30;;;;;;;66.05;35.35;;;;;;;-5.38;100.00;93616.31;5033398;28;20053;-89
2022/01/20 07:59:56;;;;;;;50.33;27.90;;;;;;;-5.11;100.00;93615.34;5030954;28;20041;-88
2022/01/20 08:02:23;;;;;;;59.35;30.85;;;;;;;-4.94;100.00;93617.59;5030373;28;20045;-89
2022/01/20 08:04:50;;;;;;;54.50;28.15;;;;;;;-4.88;100.00;93614.69;5030732;28;20049;-89
2022/01/20 08:07:17;;;;;;;59.80;26.00;;;;;;;-5.05;100.00;93583.28;5030763;28;20056;-89
2022/01/20 08:09:45;;;;;;;58.05;28.02;;;;;;;-4.94;100.00;93583.34;5030648;28;20538;-86
2022/01/20 08:12:12;;;;;;;56.47;32.20;;;;;;;-4.68;100.00;93617.53;5030631;28;20045;-87
2022/01/20 08:14:43;;;;;;;74.30;39.47;;;;;;;-4.65;100.00;93622.31;5030715;28;20045;-87
2022/01/20 08:17:15;;;;;;;52.95;30.35;;;;;;;-4.62;100.00;93627.13;5030419;28;20061;-87
2022/01/20 08:19:42;;;;;;;68.80;33.70;;;;;;;-4.41;100.00;93624.81;5030768;28;20049;-87
2022/01/20 08:22:09;;;;;;;64.15;32.92;;;;;;;-4.06;100.00;93618.19;5030467;28;20049;-87
2022/01/20 08:24:38;;;;;;;56.17;30.83;;;;;;;-3.86;100.00;93608.41;5033263;28;20088;-87
2022/01/20 08:27:16;;;;;;;;;;;;;;;;;;;;;
2022/01/20 08:29:43;;;;;;;59.38;27.90;;;;;;;-3.28;100.00;93597.50;5032828;28;20411;-87
2022/01/20 08:32:12;;;;;;;50.15;23.35;;;;;;;-3.13;100.00;93596.34;5034519;28;20060;-88
2022/01/20 08:34:39;;;;;;;62.50;22.60;;;;;;;-3.15;100.00;93592.34;5034526;28;20050;-87
2022/01/20 08:37:09;;;;;;;58.47;24.27;;;;;;;-3.18;99.96;93592.56;5034565;28;20049;-88
2022/01/20 08:39:45;;;;;;;73.07;28.35;;;;;;;-3.38;100.00;93577.28;5034405;28;20084;-87
2022/01/20 08:42:15;;;;;;;71.45;28.92;;;;;;;-3.17;100.00;93584.91;5034132;28;20046;-88
2022/01/20 08:44:43;;;;;;;65.43;25.27;;;;;;;-2.95;100.00;93578.25;5034304;28;20068;-88
2022/01/20 08:47:18;;;;;;;44.90;23.10;;;;;;;-2.77;96.97;93577.75;5034231;28;20389;-89
2022/01/20 08:49:54;;;;;;;48.35;22.95;;;;;;;-2.91;96.52;93531.03;5034261;28;20045;-89
2022/01/20 08:52:38;;;;;;;;;;;;;;;-2.48;96.20;93582.22;5016545;28;20874;-90
2022/01/20 08:55:06;;;;;;;49.42;23.88;;;;;;;-2.20;100.00;93582.53;5054125;28;19920;-90
2022/01/20 08:57:52;;;;;;;59.25;26.52;;;;;;;-1.95;98.60;93570.50;5053893;28;20400;-88
2022/01/20 09:00:21;;;;;;;;;;;;;;;-1.64;98.93;93565.47;5054309;28;20131;-90
2022/01/20 09:02:51;;;;;;;64.88;26.92;;;;;;;-1.40;97.24;93575.25;5053711;28;19921;-90
2022/01/20 09:05:18;;;;;;;55.60;24.02;;;;;;;-1.72;93.99;93533.38;5053965;28;20052;-90
2022/01/20 09:12:17;;;;;;;47.00;23.73;;;;;;;-1.43;93.96;93531.88;4971620;28;20067;-90
2022/01/20 09:36:49;;;;;;;;;;;;;;;;;;;;;
2022/01/20 09:55:13;;;;;;;29.70;15.25;;;;;;;0.46;84.40;93519.78;5052296;28;20106;-85
2022/01/20 09:57:43;;;;;;;30.52;16.83;;;;;;;0.66;84.17;93535.66;5053104;28;20064;-84
2022/01/20 10:00:16;;;;;;;31.02;16.45;;;;;;;0.70;82.38;93523.56;5053022;28;20055;-84
2022/01/20 10:02:55;;;;;;;36.03;18.80;;;;;;;0.86;84.45;93524.66;5052820;28;20052;-84
2022/01/20 10:05:35;;;;;;;30.35;16.45;;;;;;;1.15;83.45;93528.75;5052791;28;20080;-84
2022/01/20 10:08:09;;;;;;;24.42;13.75;;;;;;;1.11;81.02;93502.91;5052870;28;20049;-85
2022/01/20 10:10:48;;;;;;;31.75;15.15;;;;;;;1.33;80.18;93523.66;5052777;28;20099;-85
2022/01/20 10:13:19;;;;;;;32.20;15.27;;;;;;;1.55;80.77;93521.63;5053098;28;20136;-83
2022/01/20 10:15:58;;;;;;;28.58;14.63;;;;;;;1.66;77.49;93516.34;5052283;28;20111;-85
2022/01/20 10:18:27;;;;;;;29.90;14.48;;;;;;;1.79;79.09;93502.50;5052539;28;20052;-84
2022/01/20 10:21:00;;;;;;;25.20;13.50;;;;;;;1.82;74.94;93502.19;5052518;28;20579;-83
2022/01/20 10:23:32;;;;;;;24.95;11.77;;;;;;;1.51;76.44;93437.59;5052276;28;20052;-85
2022/01/20 10:26:10;;;;;;;25.33;13.13;;;;;;;1.84;74.33;93483.38;5052327;28;20045;-84
2022/01/20 10:28:49;;;;;;;29.75;12.68;;;;;;;2.16;77.10;93501.44;5052347;28;20052;-84
2022/01/20 10:31:19;;;;;;;28.45;12.38;;;;;;;1.84;73.54;93425.13;5052520;28;20094;-83
2022/01/20 10:33:47;;;;;;;27.05;12.73;;;;;;;2.41;73.59;93491.44;5052274;28;20526;-82
2022/01/20 10:36:16;;;;;;;29.33;13.07;;;;;;;2.52;73.29;93483.56;5052153;28;20048;-84
2022/01/20 10:38:51;;;;;;;29.63;12.30;;;;;;;2.49;71.20;93483.84;5052077;28;20135;-84
2022/01/20 10:41:28;;;;;;;23.10;11.35;;;;;;;2.50;68.56;93480.38;5052114;28;20135;-85
2022/01/20 10:44:10;;;;;;;26.50;12.38;;;;;;;2.40;69.17;93470.34;5052158;28;20435;-84
2022/01/20 10:46:51;;;;;;;22.55;11.25;;;;;;;2.54;70.48;93460.56;5051476;28;20053;-84
2022/01/20 10:49:21;;;;;;;22.90;11.20;;;;;;;2.48;69.55;93439.16;5052061;28;20140;-84
2022/01/20 10:52:02;;;;;;;22.40;11.30;;;;;;;2.77;71.33;93445.56;5052145;28;20106;-83
2022/01/20 10:54:41;;;;;;;20.27;10.65;;;;;;;2.83;69.17;93444.16;5051990;28;20053;-83
2022/01/20 10:57:10;;;;;;;21.75;10.63;;;;;;;2.95;64.92;93444.63;5051814;28;20045;-83
2022/01/20 10:59:50;;;;;;;23.83;11.63;;;;;;;2.99;64.99;93440.84;5051625;28;20061;-82
2022/01/20 11:02:20;;;;;;;20.10;11.25;;;;;;;3.03;62.97;93438.78;5051813;28;20095;-83
2022/01/20 11:04:48;;;;;;;20.88;11.45;;;;;;;3.21;62.26;93436.09;5051829;28;20049;-83
2022/01/20 11:07:16;;;;;;;19.08;10.48;;;;;;;3.21;61.46;93431.81;5051323;28;20438;-83
2022/01/20 11:09:45;;;;;;;19.40;10.48;;;;;;;3.40;59.59;93429.91;5051435;28;20040;-83
2022/01/20 11:12:19;;;;;;;21.63;11.68;;;;;;;3.52;61.07;93414.34;5051105;28;20057;-84
2022/01/20 11:14:49;;;;;;;93.10;45.70;;;;;;;3.78;65.32;93403.16;5050753;28;20132;-84
2022/01/20 11:17:22;;;;;;;23.80;12.10;;;;;;;4.01;63.43;93403.25;5049809;28;20053;-84
2022/01/20 11:19:50;;;;;;;24.73;10.45;;;;;;;4.23;62.07;93406.84;5048046;28;20561;-84
2022/01/20 11:22:18;;;;;;;20.17;10.50;;;;;;;4.47;60.71;93401.78;5050755;28;20045;-85
2022/01/20 11:24:45;;;;;;;21.50;11.55;;;;;;;4.63;59.27;93391.53;5050806;28;20560;-84
2022/01/20 11:27:14;;;;;;;18.65;7.75;;;;;;;4.71;59.04;93382.28;5051465;28;20392;-84
2022/01/20 11:29:44;;;;;;;19.20;8.52;;;;;;;4.68;59.19;93360.50;5051340;28;20491;-84
2022/01/20 11:32:20;;;;;;;24.65;8.90;;;;;;;4.95;57.10;93389.75;5051090;28;20483;-84
2022/01/20 11:35:00;;;;;;;16.55;7.47;;;;;;;5.20;55.46;93383.66;5047833;28;20052;-85
2022/01/20 11:37:28;;;;;;;11.75;4.35;;;;;;;5.35;52.60;93370.97;5051354;28;20048;-83
2022/01/20 11:40:07;;;;;;;33.90;11.77;;;;;;;5.49;51.90;93374.50;5051154;28;20458;-83
2022/01/20 11:42:34;;;;;;;28.55;10.25;;;;;;;5.52;50.95;93355.53;5051120;28;20049;-83
2022/01/20 11:45:00;;;;;;;18.25;4.47;;;;;;;5.71;49.37;93374.59;5050877;28;20053;-84
2022/01/20 11:47:32;;;;;;;18.55;7.95;;;;;;;5.77;48.38;93366.25;5050499;28;20049;-84
2022/01/20 11:50:00;;;;;;;14.60;6.78;;;;;;;5.86;50.78;93359.31;5051416;28;20135;-84
2022/01/20 11:52:28;;;;;;;9.75;4.75;;;;;;;5.89;48.07;93358.97;5050751;28;20049;-83
2022/01/20 11:54:55;;;;;;;12.70;3.58;;;;;;;5.97;48.53;93356.31;5050915;28;20114;-84
2022/01/20 11:57:29;;;;;;;6.88;3.90;;;;;;;5.91;47.96;93356.22;5050852;28;20103;-84
2022/01/20 11:59:59;;;;;;;10.43;4.72;;;;;;;5.87;47.73;93351.50;5050243;28;20059;-83
2022/01/20 12:02:29;;;;;;;13.32;3.95;;;;;;;6.02;47.52;93353.25;5050985;28;20053;-85
2022/01/20 12:04:56;;;;;;;11.15;4.32;;;;;;;6.15;47.78;93357.72;5050777;28;20048;-82
2022/01/20 12:07:30;;;;;;;11.52;3.63;;;;;;;6.04;46.03;93358.97;5050232;28;20045;-84
2022/01/20 12:10:07;;;;;;;9.00;3.25;;;;;;;6.14;45.90;93354.41;5050588;28;20103;-84
2022/01/20 12:12:36;;;;;;;8.88;3.75;;;;;;;6.11;47.29;93341.97;5050612;28;20132;-84
2022/01/20 12:15:12;;;;;;;7.22;3.22;;;;;;;6.19;46.60;93353.03;5051017;28;20059;-85
2022/01/20 12:17:41;;;;;;;9.20;2.95;;;;;;;6.24;45.60;93345.66;5050801;28;20131;-82
2022/01/20 12:20:10;;;;;;;11.65;3.67;;;;;;;6.23;44.97;93344.06;5050794;28;20045;-84
2022/01/20 12:22:41;;;;;;;12.63;4.35;;;;;;;6.26;46.96;93352.16;5050611;28;20133;-83
2022/01/20 12:25:14;;;;;;;10.77;4.88;;;;;;;6.27;46.60;93347.84;5050695;28;20057;-84
2022/01/20 12:27:42;;;;;;;8.48;3.00;;;;;;;6.26;45.31;93351.38;5050447;28;20087;-83
2022/01/20 12:30:17;;;;;;;10.35;4.63;;;;;;;6.16;46.50;93344.03;5050620;28;20072;-83
2022/01/20 12:32:44;;;;;;;6.30;3.60;;;;;;;6.21;46.87;93353.69;5050479;28;20045;-83
2022/01/20 12:35:11;;;;;;;10.88;3.13;;;;;;;6.27;46.81;93348.66;5050457;28;20057;-84
2022/01/20 12:37:40;;;;;;;8.35;2.90;;;;;;;6.37;46.51;93355.22;5050659;28;20053;-84
2022/01/20 12:40:20;;;;;;;12.05;4.70;;;;;;;6.38;45.48;93352.50;5050347;28;20098;-84
2022/01/20 12:42:47;;;;;;;7.88;3.72;;;;;;;6.40;46.43;93347.22;5050453;28;20111;-84
2022/01/20 12:48:13;;;;;;;9.05;3.15;;;;;;;6.32;46.87;93342.22;5029253;28;20067;-83
2022/01/20 12:50:50;;;;;;;8.90;2.95;;;;;;;6.33;46.85;93348.88;5029697;28;20076;-83
2022/01/20 12:53:18;;;;;;;9.38;4.32;;;;;;;6.32;46.81;93348.13;5029528;28;20515;-84
2022/01/20 12:55:52;;;;;;;12.57;7.10;;;;;;;6.35;46.32;93341.84;5027810;28;20053;-83
2022/01/20 12:58:20;;;;;;;13.32;4.35;;;;;;;6.28;47.07;93340.03;5026685;28;20050;-85
2022/01/20 13:00:58;;;;;;;9.35;4.10;;;;;;;6.26;46.44;93336.06;5027529;28;20496;-83
2022/01/20 13:03:34;;;;;;;8.60;3.25;;;;;;;6.03;46.97;93333.66;5025225;28;20103;-82
2022/01/20 13:06:01;;;;;;;7.55;2.90;;;;;;;5.81;48.33;93321.59;5023316;28;20459;-83
2022/01/20 13:08:32;;;;;;;22.92;9.52;;;;;;;5.97;49.67;93322.38;5027409;28;20420;-84
2022/01/20 13:11:05;;;;;;;14.00;6.32;;;;;;;5.92;48.91;93314.47;5026364;28;20045;-85
2022/01/20 13:13:32;;;;;;;10.95;4.43;;;;;;;5.91;48.72;93316.22;5032185;28;20076;-84